Time;durP1;ratioP1;P1;durP2;ratioP2;P2;SDS_P1;SDS_P2;PMS_P1;PMS_P2;Temp;Humidity;BMP_temperature;BMP_pressure;BME280_temperature;BME280_humidity;BME280_pressure;Samples;Min_cycle;Max_cycle;Signal;HPM_P1;HPM_P2
2021/04/04 00:00:57;;;;;;;3.37;2.60;;;6.20;87.00;;;;;;5057365;28;20182;-47
2021/04/04 00:03:23;;;;;;;3.90;2.70;;;6.10;87.80;;;;;;5057506;28;20628;-48
2021/04/04 00:05:48;;;;;;;4.20;2.67;;;6.20;87.50;;;;;;5057160;28;20214;-47
2021/04/04 00:08:14;;;;;;;5.00;2.50;;;6.10;87.70;;;;;;5056915;28;20559;-49
2021/04/04 00:10:39;;;;;;;3.53;2.93;;;6.10;88.50;;;;;;5057003;28;20229;-54
2021/04/04 00:13:05;;;;;;;3.37;2.70;;;6.00;88.80;;;;;;5056925;28;20172;-47
2021/04/04 00:15:30;;;;;;;4.03;2.90;;;6.00;89.00;;;;;;5057284;28;20286;-47
2021/04/04 00:17:56;;;;;;;5.70;3.07;;;6.00;89.50;;;;;;5057116;28;20266;-52
2021/04/04 00:20:22;;;;;;;3.87;2.93;;;5.90;90.00;;;;;;5056939;28;20183;-49
2021/04/04 00:22:47;;;;;;;5.43;3.30;;;5.80;90.20;;;;;;5057018;28;20582;-48
2021/04/04 00:25:15;;;;;;;6.87;3.30;;;5.80;90.60;;;;;;5057110;28;20646;-52
2021/04/04 00:27:41;;;;;;;3.50;2.70;;;5.70;90.50;;;;;;5056885;28;20179;-57
2021/04/04 00:30:13;;;;;;;4.10;2.83;;;5.80;90.50;;;;;;5056735;28;20235;-47
2021/04/04 00:32:40;;;;;;;4.60;3.20;;;5.70;90.60;;;;;;5057387;28;20159;-47
2021/04/04 00:35:11;;;;;;;4.17;2.97;;;5.70;90.80;;;;;;5056992;28;20171;-47
2021/04/04 00:37:37;;;;;;;5.43;3.53;;;5.70;91.00;;;;;;5056462;28;20277;-56
2021/04/04 00:40:11;;;;;;;4.10;3.03;;;5.60;91.20;;;;;;5056741;28;20183;-54
2021/04/04 00:42:37;;;;;;;4.10;2.97;;;5.60;91.00;;;;;;5056579;28;20174;-56
2021/04/04 00:45:18;;;;;;;3.97;2.77;;;5.60;91.10;;;;;;5056663;28;20171;-58
2021/04/04 00:47:45;;;;;;;4.57;3.03;;;5.60;91.20;;;;;;5056780;28;20159;-54
2021/04/04 00:50:12;;;;;;;4.40;3.17;;;5.60;91.20;;;;;;5056502;28;20258;-48
2021/04/04 00:52:39;;;;;;;4.90;2.93;;;5.60;91.40;;;;;;5056194;28;20521;-48
2021/04/04 00:55:06;;;;;;;3.63;2.43;;;5.50;91.20;;;;;;5056640;28;20566;-56
2021/04/04 00:57:33;;;;;;;5.77;2.90;;;5.50;91.40;;;;;;5056402;28;20279;-47
2021/04/04 01:00:07;;;;;;;3.83;3.00;;;5.40;91.50;;;;;;5056794;28;20202;-49
2021/04/04 01:02:32;;;;;;;3.33;2.90;;;5.40;91.50;;;;;;5056302;28;20171;-51
2021/04/04 01:05:00;;;;;;;3.77;3.00;;;5.40;91.60;;;;;;5056207;28;20501;-53
2021/04/04 01:07:26;;;;;;;3.20;2.90;;;5.30;91.60;;;;;;5056175;28;20229;-54
2021/04/04 01:09:53;;;;;;;5.13;3.30;;;5.30;91.80;;;;;;5056123;28;20558;-47
2021/04/04 01:12:38;;;;;;;4.33;2.90;;;5.20;91.90;;;;;;5056170;28;20179;-48
2021/04/04 01:15:13;;;;;;;3.97;2.93;;;5.20;91.90;;;;;;5056084;28;20171;-52
2021/04/04 01:17:42;;;;;;;5.30;2.90;;;5.10;92.10;;;;;;5056146;28;20248;-49
2021/04/04 01:20:15;;;;;;;4.47;3.20;;;5.10;92.20;;;;;;5055948;28;20189;-54
2021/04/04 01:23:08;;;;;;;3.80;3.17;;;5.10;92.30;;;;;;5055622;28;20183;-47
2021/04/04 01:25:52;;;;;;;4.57;3.10;;;5.10;92.20;;;;;;5056148;28;20218;-53
2021/04/04 01:28:25;;;;;;;3.47;3.00;;;5.10;92.10;;;;;;5055786;28;20644;-53
2021/04/04 01:30:52;;;;;;;5.20;2.87;;;5.10;92.20;;;;;;5056105;28;20295;-57
2021/04/04 01:33:19;;;;;;;5.77;3.20;;;4.90;92.30;;;;;;5055759;28;20189;-49
2021/04/04 01:35:48;;;;;;;6.30;3.50;;;4.80;92.50;;;;;;5055180;28;20265;-56
2021/04/04 01:38:18;;;;;;;5.20;3.30;;;4.50;92.60;;;;;;5055466;28;20606;-48
2021/04/04 01:40:47;;;;;;;4.27;3.10;;;4.40;92.90;;;;;;5055791;28;20183;-48
2021/04/04 01:43:15;;;;;;;4.00;3.40;;;4.40;93.30;;;;;;5055158;28;20610;-55
2021/04/04 01:45:42;;;;;;;3.33;3.00;;;4.40;93.50;;;;;;5055502;28;20647;-47
2021/04/04 01:48:11;;;;;;;4.67;3.10;;;4.40;93.30;;;;;;5055034;28;20556;-48
2021/04/04 01:50:37;;;;;;;5.73;3.20;;;4.40;93.10;;;;;;5055302;28;20670;-55
2021/04/04 01:53:05;;;;;;;4.60;3.10;;;4.40;92.90;;;;;;5054980;28;20203;-47
2021/04/04 01:55:31;;;;;;;4.73;3.20;;;4.40;92.90;;;;;;5055442;28;20199;-54
2021/04/04 01:57:57;;;;;;;6.40;3.43;;;4.40;93.10;;;;;;5056500;28;20233;-47
2021/04/04 02:00:27;;;;;;;3.87;3.13;;;4.30;93.20;;;;;;5073943;28;20174;-57
2021/04/04 02:02:54;;;;;;;4.20;3.20;;;4.20;93.40;;;;;;5074663;28;20182;-48
2021/04/04 02:05:22;;;;;;;5.60;3.00;;;4.20;93.60;;;;;;5073952;28;20634;-47
2021/04/04 02:07:50;;;;;;;3.73;2.97;;;4.20;93.50;;;;;;5074861;28;20269;-47
2021/04/04 02:10:23;;;;;;;3.73;2.80;;;4.30;93.60;;;;;;5074896;28;20198;-47
2021/04/04 02:12:51;;;;;;;5.70;3.43;;;4.20;93.30;;;;;;5074777;28;20582;-55
2021/04/04 02:15:18;;;;;;;4.47;3.40;;;4.20;93.30;;;;;;5075321;28;20186;-48
2021/04/04 02:17:47;;;;;;;3.47;3.07;;;4.10;93.50;;;;;;5074602;28;20174;-47
2021/04/04 02:20:16;;;;;;;3.70;3.13;;;4.20;93.30;;;;;;5064578;28;20187;-56
2021/04/04 02:22:43;;;;;;;6.27;3.60;;;4.20;93.50;;;;;;5054488;28;20167;-50
2021/04/04 02:25:10;;;;;;;5.77;3.67;;;4.10;93.70;;;;;;5054321;28;20171;-54
2021/04/04 02:27:37;;;;;;;4.67;3.20;;;4.00;93.80;;;;;;5055148;28;20468;-52
2021/04/04 02:30:06;;;;;;;4.90;3.17;;;4.10;94.00;;;;;;5053767;28;20175;-47
2021/04/04 02:32:35;;;;;;;6.93;3.57;;;4.10;94.00;;;;;;5054138;28;20690;-47
2021/04/04 02:35:03;;;;;;;3.67;2.73;;;4.10;94.00;;;;;;5054666;28;20179;-55
2021/04/04 02:37:29;;;;;;;4.17;2.60;;;4.20;94.10;;;;;;5054173;28;20225;-53
2021/04/04 02:40:01;;;;;;;3.70;2.90;;;4.20;94.10;;;;;;5074985;28;20178;-58
2021/04/04 02:42:28;;;;;;;3.53;2.50;;;4.20;93.80;;;;;;5073249;28;20187;-54
2021/04/04 02:44:56;;;;;;;3.73;2.90;;;4.20;93.50;;;;;;5073846;28;20182;-47
2021/04/04 02:47:34;;;;;;;3.70;3.13;;;4.30;93.60;;;;;;5072932;28;20587;-52
2021/04/04 02:50:00;;;;;;;3.30;2.57;;;4.30;93.70;;;;;;5074487;28;20411;-48
2021/04/04 02:52:28;;;;;;;3.70;3.13;;;4.20;93.50;;;;;;5073979;28;20436;-54
2021/04/04 02:54:55;;;;;;;3.60;3.07;;;4.20;93.50;;;;;;5074689;28;20186;-57
2021/04/04 02:57:26;;;;;;;3.73;3.00;;;4.20;93.60;;;;;;5073892;28;20191;-56
2021/04/04 02:59:56;;;;;;;4.37;3.03;;;4.20;93.60;;;;;;5074077;28;20488;-54
2021/04/04 03:02:23;;;;;;;3.73;2.90;;;4.20;93.60;;;;;;5073967;28;20217;-56
2021/04/04 03:04:51;;;;;;;4.50;2.87;;;4.20;93.50;;;;;;5074298;28;20401;-47
2021/04/04 03:07:20;;;;;;;3.63;2.77;;;4.20;93.30;;;;;;5073909;28;20194;-56
2021/04/04 03:09:50;;;;;;;4.43;2.80;;;4.10;93.20;;;;;;5073610;28;20166;-52
2021/04/04 03:12:17;;;;;;;7.00;3.30;;;4.10;93.10;;;;;;5073784;28;20277;-53
2021/04/04 03:14:45;;;;;;;3.40;2.47;;;4.10;93.00;;;;;;5073916;28;20415;-57
2021/04/04 03:17:12;;;;;;;4.07;2.80;;;4.10;93.10;;;;;;5074509;28;20194;-47
2021/04/04 03:19:41;;;;;;;3.10;2.53;;;4.00;93.20;;;;;;5074088;28;20223;-49
2021/04/04 03:22:07;;;;;;;2.97;2.27;;;3.90;92.90;;;;;;5073801;28;20412;-56
2021/04/04 03:24:34;;;;;;;2.73;2.40;;;4.00;92.80;;;;;;5074452;28;20423;-47
2021/04/04 03:27:00;;;;;;;6.20;3.20;;;3.90;93.10;;;;;;5073771;28;20206;-56
2021/04/04 03:29:27;;;;;;;4.37;3.10;;;3.80;93.40;;;;;;5074091;28;20174;-51
2021/04/04 03:31:53;;;;;;;3.20;2.80;;;3.80;93.50;;;;;;5073608;28;20456;-53
2021/04/04 03:34:19;;;;;;;4.77;3.07;;;3.70;93.50;;;;;;5073821;28;20423;-47
2021/04/04 03:36:46;;;;;;;4.03;2.80;;;3.70;93.50;;;;;;5073425;28;20209;-47
2021/04/04 03:39:12;;;;;;;3.90;2.70;;;3.70;93.10;;;;;;5074169;28;20257;-49
2021/04/04 03:41:38;;;;;;;2.80;2.50;;;3.70;93.20;;;;;;5073569;28;20423;-58
2021/04/04 03:44:07;;;;;;;4.73;2.80;;;3.80;93.30;;;;;;5073910;28;20204;-47
2021/04/04 03:46:34;;;;;;;3.37;2.47;;;3.90;93.50;;;;;;5073913;28;20424;-56
2021/04/04 03:49:01;;;;;;;2.93;2.50;;;3.90;93.30;;;;;;5073524;28;20182;-47
2021/04/04 03:51:28;;;;;;;4.00;2.80;;;3.90;93.50;;;;;;5073339;28;20480;-54
2021/04/04 03:53:56;;;;;;;4.03;3.10;;;3.90;93.70;;;;;;5073809;28;20224;-47
2021/04/04 03:56:28;;;;;;;5.27;3.50;;;3.90;93.60;;;;;;5073841;28;20420;-47
2021/04/04 03:58:57;;;;;;;7.03;3.30;;;3.90;93.50;;;;;;5074145;28;20503;-47
2021/04/04 04:01:26;;;;;;;4.13;2.73;;;3.90;93.50;;;;;;5073498;28;20273;-54
2021/04/04 04:03:53;;;;;;;4.63;3.00;;;3.90;93.50;;;;;;5072954;28;20832;-47
2021/04/04 04:06:19;;;;;;;4.57;2.53;;;3.90;93.50;;;;;;5073231;28;20951;-53
2021/04/04 04:08:45;;;;;;;3.63;3.00;;;3.80;93.50;;;;;;5073777;28;20429;-47
2021/04/04 04:11:13;;;;;;;3.60;2.60;;;3.80;93.60;;;;;;5073643;28;20452;-52
2021/04/04 04:13:41;;;;;;;3.00;2.50;;;3.80;93.70;;;;;;5074140;28;20496;-54
2021/04/04 04:16:10;;;;;;;2.77;2.57;;;3.80;93.70;;;;;;5073172;28;20194;-47
2021/04/04 04:18:40;;;;;;;4.83;3.03;;;3.80;93.70;;;;;;5072922;28;20920;-48
2021/04/04 04:21:06;;;;;;;5.30;2.90;;;3.80;93.70;;;;;;5072971;28;20405;-49
2021/04/04 04:23:33;;;;;;;4.47;2.90;;;3.70;93.80;;;;;;5073714;28;20412;-47
2021/04/04 04:26:00;;;;;;;2.83;2.43;;;3.40;94.10;;;;;;5075649;28;20199;-51
2021/04/04 04:28:26;;;;;;;5.17;3.30;;;3.20;94.20;;;;;;5077611;28;20518;-52
2021/04/04 04:30:52;;;;;;;4.43;3.37;;;3.00;95.90;;;;;;5077191;28;20460;-52
2021/04/04 04:33:21;;;;;;;3.40;3.07;;;2.80;97.80;;;;;;5076734;28;20412;-47
2021/04/04 04:35:49;;;;;;;4.57;3.00;;;2.70;98.40;;;;;;5076658;28;20269;-56
2021/04/04 04:38:15;;;;;;;4.70;3.13;;;2.70;98.30;;;;;;5077012;28;20416;-49
2021/04/04 04:40:43;;;;;;;6.40;3.30;;;2.80;98.40;;;;;;5076773;28;20409;-55
2021/04/04 04:43:13;;;;;;;3.97;2.90;;;2.80;98.30;;;;;;5066184;28;20461;-53
2021/04/04 04:45:40;;;;;;;5.93;3.07;;;2.80;98.90;;;;;;5069866;28;20940;-52
2021/04/04 04:48:08;;;;;;;4.13;3.20;;;2.80;98.80;;;;;;5060490;28;20422;-49
2021/04/04 04:50:34;;;;;;;5.67;3.13;;;2.70;99.10;;;;;;5067852;28;20819;-51
2021/04/04 04:53:02;;;;;;;4.77;3.13;;;2.80;99.00;;;;;;5076415;28;20423;-57
2021/04/04 04:55:27;;;;;;;3.63;2.53;;;2.90;98.90;;;;;;5065176;28;20436;-56
2021/04/04 04:57:58;;;;;;;3.13;2.63;;;3.00;98.50;;;;;;5056214;28;20401;-47
2021/04/04 05:00:24;;;;;;;3.97;2.53;;;3.10;98.00;;;;;;5065662;28;20162;-47
2021/04/04 05:02:50;;;;;;;2.90;2.60;;;3.10;97.70;;;;;;5076088;28;20405;-53
2021/04/04 05:05:16;;;;;;;3.97;2.70;;;3.20;97.40;;;;;;5074878;28;20424;-51
2021/04/04 05:07:44;;;;;;;3.30;2.80;;;3.20;97.40;;;;;;5069428;28;20206;-52
2021/04/04 05:10:12;;;;;;;4.57;3.20;;;3.20;97.30;;;;;;5056177;28;20417;-57
2021/04/04 05:12:56;;;;;;;6.33;5.00;;;3.30;97.50;;;;;;5055789;28;20402;-47
2021/04/04 05:15:24;;;;;;;4.20;2.90;;;3.40;97.40;;;;;;5055115;28;20422;-47
2021/04/04 05:17:50;;;;;;;3.23;2.60;;;3.20;97.40;;;;;;5055009;28;20488;-54
2021/04/04 05:20:18;;;;;;;5.53;2.90;;;2.90;98.30;;;;;;5055456;28;20499;-55
2021/04/04 05:22:45;;;;;;;3.07;2.77;;;2.80;99.10;;;;;;5055515;28;20258;-49
2021/04/04 05:25:11;;;;;;;3.43;3.10;;;2.80;99.10;;;;;;5055762;28;20799;-53
2021/04/04 05:27:37;;;;;;;4.70;3.30;;;3.00;99.00;;;;;;5055696;28;20781;-49
2021/04/04 05:30:10;;;;;;;5.70;3.00;;;3.20;98.70;;;;;;5055975;28;20459;-51
2021/04/04 05:32:45;;;;;;;6.50;3.20;;;3.30;98.70;;;;;;5055749;28;20168;-48
2021/04/04 05:35:23;;;;;;;6.13;3.60;;;3.30;98.70;;;;;;5055576;28;20428;-52
2021/04/04 05:37:53;;;;;;;5.43;3.10;;;3.20;99.50;;;;;;5054116;28;20447;-54
2021/04/04 05:40:23;;;;;;;4.20;3.10;;;3.10;99.30;;;;;;5056060;28;20413;-47
2021/04/04 05:42:58;;;;;;;4.77;2.80;;;3.30;99.20;;;;;;5055189;28;20414;-51
2021/04/04 05:45:32;;;;;;;5.70;3.40;;;3.40;98.60;;;;;;5055671;28;20429;-47
2021/04/04 05:48:20;;;;;;;4.30;3.47;;;3.40;99.00;;;;;;5055855;28;20433;-53
2021/04/04 05:50:56;;;;;;;3.67;3.03;;;3.30;99.60;;;;;;5055189;28;20468;-49
2021/04/04 05:53:29;;;;;;;4.03;3.03;;;3.40;99.50;;;;;;5055523;28;20504;-54
2021/04/04 05:56:03;;;;;;;3.50;3.07;;;3.60;99.40;;;;;;5055234;28;20433;-51
2021/04/04 05:58:50;;;;;;;3.73;3.03;;;3.60;99.00;;;;;;5055165;28;20781;-48
2021/04/04 06:01:24;;;;;;;3.57;3.20;;;3.80;98.70;;;;;;5054841;28;20773;-57
2021/04/04 06:04:05;;;;;;;4.73;2.83;;;3.90;98.40;;;;;;5054912;28;20611;-57
2021/04/04 06:06:55;;;;;;;3.40;2.83;;;3.90;98.30;;;;;;5054003;28;20921;-55
2021/04/04 06:09:52;;;;;;;3.93;2.93;;;4.10;98.00;;;;;;5055153;28;20167;-46
2021/04/04 06:12:35;;;;;;;4.83;3.27;;;4.10;97.90;;;;;;5054820;28;20225;-52
2021/04/04 06:15:23;;;;;;;4.87;3.47;;;4.00;99.10;;;;;;5054961;28;20170;-55
2021/04/04 06:18:12;;;;;;;4.97;3.30;;;4.10;99.00;;;;;;5055112;28;20289;-51
2021/04/04 06:20:56;;;;;;;2.90;2.40;;;4.40;98.80;;;;;;5054852;28;20174;-47
2021/04/04 06:23:28;;;;;;;3.70;2.70;;;4.30;97.80;;;;;;5054812;28;20246;-57
2021/04/04 06:25:58;;;;;;;3.07;2.33;;;4.50;97.10;;;;;;5055103;28;20192;-54
2021/04/04 06:28:49;;;;;;;4.17;2.37;;;4.50;97.00;;;;;;5055440;28;20178;-47
2021/04/04 06:31:30;;;;;;;3.90;2.60;;;4.60;96.70;;;;;;5055231;28;20589;-52
2021/04/04 06:34:18;;;;;;;2.87;2.60;;;4.70;96.50;;;;;;5054329;28;20175;-52
2021/04/04 06:36:59;;;;;;;3.57;2.63;;;4.80;95.40;;;;;;5054396;28;20207;-47
2021/04/04 06:39:58;;;;;;;3.20;2.63;;;4.90;95.90;;;;;;5056061;28;20201;-46
2021/04/04 06:42:52;;;;;;;3.13;2.40;;;5.10;95.30;;;;;;5054821;28;20171;-56
2021/04/04 06:45:40;;;;;;;4.87;2.80;;;5.10;95.40;;;;;;5054395;28;20201;-49
2021/04/04 06:48:12;;;;;;;2.80;2.30;;;5.30;95.10;;;;;;5054102;28;20209;-47
2021/04/04 06:50:52;;;;;;;3.10;2.40;;;5.40;94.70;;;;;;5054592;28;20198;-47
2021/04/04 06:53:21;;;;;;;3.53;2.47;;;5.60;94.70;;;;;;5063871;28;20666;-46
2021/04/04 06:55:55;;;;;;;4.90;2.50;;;5.70;94.50;;;;;;5073875;28;20308;-47
2021/04/04 06:58:41;;;;;;;4.93;2.50;;;5.80;94.30;;;;;;5074029;28;20208;-47
2021/04/04 07:01:12;;;;;;;5.47;2.20;;;5.90;93.70;;;;;;5066091;28;20241;-46
2021/04/04 07:03:55;;;;;;;3.20;2.50;;;5.90;92.50;;;;;;5061679;28;20190;-48
2021/04/04 07:06:26;;;;;;;4.43;2.23;;;6.00;92.70;;;;;;5058257;28;20202;-47
2021/04/04 07:09:13;;;;;;;2.83;2.10;;;6.10;92.40;;;;;;5054422;28;20186;-46
2021/04/04 07:12:07;;;;;;;3.07;2.13;;;6.20;91.80;;;;;;5054076;28;20524;-53
2021/04/04 07:14:55;;;;;;;2.93;2.20;;;6.30;91.40;;;;;;5056592;28;20191;-52
2021/04/04 07:17:58;;;;;;;2.90;2.00;;;6.40;92.30;;;;;;5055127;28;20202;-53
2021/04/04 07:20:43;;;;;;;3.60;2.17;;;6.50;91.60;;;;;;5054119;28;20242;-46
2021/04/04 07:23:14;;;;;;;3.17;2.47;;;6.70;91.60;;;;;;5056426;28;20542;-52
2021/04/04 07:25:53;;;;;;;3.13;2.13;;;6.90;91.30;;;;;;5062994;28;20558;-56
2021/04/04 07:28:32;;;;;;;2.73;2.10;;;6.90;91.00;;;;;;5062409;28;20189;-55
2021/04/04 07:31:00;;;;;;;3.17;2.30;;;7.00;90.80;;;;;;5054710;28;20207;-52
2021/04/04 07:33:50;;;;;;;3.17;2.37;;;7.10;90.50;;;;;;5074026;28;20185;-52
2021/04/04 07:36:22;;;;;;;4.73;2.40;;;7.10;89.80;;;;;;5073770;28;20213;-51
2021/04/04 07:39:02;;;;;;;2.60;2.30;;;7.30;90.50;;;;;;5059506;28;20186;-46
2021/04/04 07:41:36;;;;;;;3.00;2.13;;;7.50;90.10;;;;;;5053409;28;20687;-47
2021/04/04 07:44:25;;;;;;;2.97;2.30;;;7.70;89.20;;;;;;5053420;28;20166;-56
2021/04/04 07:47:09;;;;;;;4.30;2.60;;;7.80;85.70;;;;;;5053784;28;20210;-53
2021/04/04 07:49:45;;;;;;;4.40;2.30;;;7.90;86.50;;;;;;5053200;28;20599;-46
2021/04/04 07:52:39;;;;;;;2.57;2.20;;;7.80;84.40;;;;;;5053247;28;20202;-46
2021/04/04 07:55:17;;;;;;;4.10;2.50;;;7.80;82.90;;;;;;5053424;28;20168;-47
2021/04/04 07:58:18;;;;;;;3.87;2.60;;;8.00;82.10;;;;;;5052977;28;20171;-51
2021/04/04 08:00:48;;;;;;;2.90;2.50;;;7.90;80.50;;;;;;5066913;28;20217;-48
2021/04/04 08:03:27;;;;;;;2.33;2.13;;;7.90;81.40;;;;;;5076297;28;20204;-54
2021/04/04 08:05:59;;;;;;;2.83;2.17;;;8.00;80.40;;;;;;5080273;28;20261;-46
2021/04/04 08:08:33;;;;;;;2.63;1.77;;;8.00;80.80;;;;;;5093218;28;20263;-52
2021/04/04 08:11:20;;;;;;;2.03;1.83;;;8.10;81.10;;;;;;5073355;28;20296;-47
2021/04/04 08:14:06;;;;;;;3.83;2.10;;;8.30;78.60;;;;;;5073629;28;20190;-51
2021/04/04 08:16:55;;;;;;;2.80;2.07;;;8.50;80.90;;;;;;5066735;28;20191;-53
2021/04/04 08:19:21;;;;;;;2.93;2.20;;;9.70;79.80;;;;;;5069610;28;20167;-49
2021/04/04 08:21:58;;;;;;;2.73;2.10;;;8.70;77.10;;;;;;5069525;28;20223;-52
2021/04/04 08:24:31;;;;;;;3.97;2.00;;;8.80;76.30;;;;;;5068685;28;20641;-46
2021/04/04 08:27:11;;;;;;;3.33;2.10;;;8.70;74.40;;;;;;5077513;28;20236;-54
2021/04/04 08:29:45;;;;;;;2.30;2.10;;;8.80;74.90;;;;;;5083592;28;20180;-54
2021/04/04 08:32:14;;;;;;;3.90;2.70;;;8.80;76.10;;;;;;5085382;28;20260;-54
2021/04/04 08:34:50;;;;;;;2.53;2.20;;;8.50;81.70;;;;;;5076240;28;20181;-47
2021/04/04 08:37:24;;;;;;;2.87;2.13;;;8.40;81.90;;;;;;5076155;28;20206;-54
2021/04/04 08:40:00;;;;;;;2.83;2.10;;;8.30;79.90;;;;;;5083673;28;20165;-51
2021/04/04 08:42:29;;;;;;;2.63;2.00;;;8.30;77.00;;;;;;5049000;28;20545;-54
2021/04/04 08:45:07;;;;;;;2.67;2.33;;;8.50;74.80;;;;;;5079720;28;20178;-47
2021/04/04 08:47:35;;;;;;;2.33;1.80;;;8.50;74.70;;;;;;5076331;28;20226;-53
2021/04/04 08:50:07;;;;;;;4.80;2.40;;;8.60;74.30;;;;;;5065618;28;20182;-46
2021/04/04 08:52:36;;;;;;;2.97;1.90;;;8.70;74.50;;;;;;5075830;28;20205;-52
2021/04/04 08:55:02;;;;;;;3.47;2.50;;;8.70;76.30;;;;;;5076335;28;20170;-45
2021/04/04 08:57:42;;;;;;;2.30;1.87;;;8.60;74.10;;;;;;5074545;28;20190;-53
2021/04/04 09:00:10;;;;;;;2.30;2.00;;;8.50;73.00;;;;;;5075478;28;20194;-46
2021/04/04 09:02:39;;;;;;;4.50;1.97;;;8.40;77.40;;;;;;5074165;28;20182;-56
2021/04/04 09:05:06;;;;;;;2.30;1.80;;;8.50;74.40;;;;;;5063653;28;20191;-47
2021/04/04 09:07:42;;;;;;;2.20;2.00;;;8.50;74.10;;;;;;5069020;28;20202;-47
2021/04/04 09:10:10;;;;;;;2.10;1.73;;;8.60;77.50;;;;;;5066215;28;20182;-51
2021/04/04 09:12:39;;;;;;;2.13;1.63;;;8.90;78.40;;;;;;5066506;28;20182;-51
2021/04/04 09:15:10;;;;;;;1.73;1.50;;;9.40;76.20;;;;;;5066502;28;20183;-54
2021/04/04 09:17:35;;;;;;;2.30;1.50;;;9.90;75.10;;;;;;5067070;28;20179;-45
2021/04/04 09:20:06;;;;;;;3.47;1.63;;;12.50;73.10;;;;;;5064037;28;20179;-48
2021/04/04 09:22:36;;;;;;;2.43;1.60;;;10.70;67.60;;;;;;5061132;28;20209;-53
2021/04/04 09:25:07;;;;;;;2.53;1.67;;;10.80;61.80;;;;;;5074525;28;20186;-47
2021/04/04 09:27:39;;;;;;;2.70;1.63;;;10.80;62.80;;;;;;5068881;28;20543;-57
2021/04/04 09:30:22;;;;;;;2.83;1.87;;;10.80;62.80;;;;;;5076393;28;20179;-56
2021/04/04 09:32:58;;;;;;;2.13;1.50;;;10.60;60.60;;;;;;5076298;28;20163;-56
2021/04/04 09:35:24;;;;;;;4.00;1.70;;;10.60;63.20;;;;;;5074432;28;20190;-56
2021/04/04 09:37:50;;;;;;;2.07;1.50;;;11.00;62.70;;;;;;5065960;28;20531;-46
2021/04/04 09:40:19;;;;;;;3.10;1.57;;;11.20;59.10;;;;;;5075836;28;20163;-47
2021/04/04 09:42:45;;;;;;;1.90;1.50;;;11.30;59.30;;;;;;5075323;28;20166;-55
2021/04/04 09:45:12;;;;;;;2.40;1.70;;;11.00;60.00;;;;;;5066726;28;20175;-46
2021/04/04 09:47:38;;;;;;;2.67;1.67;;;11.00;59.00;;;;;;5060415;28;20175;-46
2021/04/04 09:50:20;;;;;;;4.67;1.80;;;10.70;60.80;;;;;;5062349;28;20267;-46
2021/04/04 09:52:45;;;;;;;2.70;1.93;;;10.30;61.90;;;;;;5064619;28;20175;-54
2021/04/04 09:55:14;;;;;;;1.97;1.53;;;9.80;60.60;;;;;;5066408;28;20201;-47
2021/04/04 09:57:51;;;;;;;2.50;1.77;;;9.70;62.50;;;;;;5065909;28;20257;-50
2021/04/04 10:00:32;;;;;;;2.03;1.60;;;9.80;61.90;;;;;;5066360;28;20174;-48
2021/04/04 10:03:18;;;;;;;2.03;1.40;;;9.90;64.70;;;;;;5072875;28;20182;-58
2021/04/04 10:05:48;;;;;;;2.87;1.60;;;10.00;60.30;;;;;;5073515;28;20211;-52
2021/04/04 10:08:17;;;;;;;1.70;1.53;;;10.00;63.90;;;;;;5061916;28;20578;-53
2021/04/04 10:10:45;;;;;;;1.90;1.70;;;10.30;63.30;;;;;;5062901;28;20298;-54
2021/04/04 10:13:12;;;;;;;2.10;1.57;;;10.40;60.50;;;;;;5062240;28;20182;-57
2021/04/04 10:15:39;;;;;;;1.90;1.30;;;10.60;63.60;;;;;;5063286;28;20198;-48
2021/04/04 10:18:06;;;;;;;1.57;1.43;;;10.70;62.30;;;;;;5059282;28;20178;-51
2021/04/04 10:20:37;;;;;;;2.37;2.10;;;11.00;60.80;;;;;;5057929;28;20277;-55
2021/04/04 10:23:04;;;;;;;2.70;1.77;;;11.30;57.70;;;;;;5061757;28;20183;-53
2021/04/04 10:25:30;;;;;;;2.27;1.77;;;11.50;56.70;;;;;;5058764;28;20747;-50
2021/04/04 10:28:22;;;;;;;2.53;1.73;;;11.60;58.40;;;;;;5062206;28;20182;-49
2021/04/04 10:30:55;;;;;;;2.07;1.63;;;11.70;56.50;;;;;;5058193;28;20214;-56
2021/04/04 10:33:26;;;;;;;1.60;1.50;;;13.90;56.60;;;;;;5062838;28;20179;-52
2021/04/04 10:35:53;;;;;;;2.47;1.60;;;11.90;61.50;;;;;;5063445;28;20748;-48
2021/04/04 10:38:24;;;;;;;3.00;1.80;;;12.10;58.40;;;;;;5060150;28;20204;-47
2021/04/04 10:40:53;;;;;;;3.20;1.93;;;12.10;58.20;;;;;;5065357;28;20216;-55
2021/04/04 10:43:23;;;;;;;1.80;1.60;;;12.10;55.70;;;;;;5055627;28;20175;-53
2021/04/04 10:46:23;;;;;;;2.07;1.60;;;12.50;59.40;;;;;;5054837;28;20233;-49
2021/04/04 10:48:48;;;;;;;2.73;1.60;;;12.90;55.60;;;;;;5003769;28;20200;-49
2021/04/04 10:51:17;;;;;;;2.17;1.60;;;13.30;61.00;;;;;;4992683;28;20201;-53
2021/04/04 10:53:44;;;;;;;2.13;1.80;;;13.90;58.20;;;;;;5003843;28;20222;-54
2021/04/04 10:56:11;;;;;;;3.83;1.60;;;14.20;56.40;;;;;;5000413;28;20682;-46
2021/04/04 10:58:37;;;;;;;2.13;1.43;;;14.60;57.70;;;;;;5007950;28;20591;-57
2021/04/04 11:01:05;;;;;;;2.37;1.50;;;14.80;53.40;;;;;;5002053;28;20185;-48
2021/04/04 11:03:31;;;;;;;1.73;1.60;;;15.20;56.20;;;;;;5010425;28;20577;-57
2021/04/04 11:05:59;;;;;;;2.23;1.60;;;15.50;52.10;;;;;;5002902;28;20557;-57
2021/04/04 11:08:25;;;;;;;2.03;1.80;;;15.40;51.50;;;;;;4991342;28;20207;-52
2021/04/04 11:10:51;;;;;;;1.97;1.70;;;14.40;52.80;;;;;;4993023;28;20587;-48
2021/04/04 11:13:18;;;;;;;2.43;1.37;;;13.90;53.20;;;;;;4999109;28;20556;-47
2021/04/04 11:16:02;;;;;;;2.00;1.80;;;14.20;55.10;;;;;;4996618;28;20204;-47
2021/04/04 11:18:34;;;;;;;2.03;1.53;;;14.80;52.40;;;;;;5010852;28;20271;-52
2021/04/04 11:21:03;;;;;;;3.03;1.60;;;15.80;48.70;;;;;;5009918;28;20270;-50
2021/04/04 11:23:30;;;;;;;1.50;1.40;;;16.70;48.10;;;;;;5002118;28;20275;-56
2021/04/04 11:25:55;;;;;;;2.10;1.70;;;18.10;45.70;;;;;;5048253;28;20295;-56
2021/04/04 11:28:26;;;;;;;1.40;1.30;;;20.50;46.70;;;;;;5061960;28;20174;-54
2021/04/04 11:30:53;;;;;;;3.03;1.60;;;22.90;42.00;;;;;;5063973;28;20691;-56
2021/04/04 11:33:24;;;;;;;2.13;1.70;;;25.00;37.60;;;;;;5053774;28;20639;-58
2021/04/04 11:36:12;;;;;;;1.75;1.27;;;24.40;35.80;;;;;;5063341;28;20259;-50
2021/04/04 11:38:49;;;;;;;2.35;1.70;;;24.40;38.50;;;;;;5064751;28;20195;-47
2021/04/04 11:41:16;;;;;;;1.52;1.42;;;22.80;36.90;;;;;;5064503;28;20179;-56
2021/04/04 11:43:43;;;;;;;3.10;1.80;;;20.80;39.80;;;;;;5057432;28;20337;-55
2021/04/04 11:46:49;;;;;;;2.53;1.80;;;19.60;41.70;;;;;;5068021;28;20256;-58
2021/04/04 11:49:34;;;;;;;2.40;1.48;;;20.20;40.50;;;;;;5070656;28;20186;-50
2021/04/04 11:52:08;;;;;;;1.50;1.40;;;21.30;40.50;;;;;;5077252;28;20210;-48
2021/04/04 11:54:49;;;;;;;2.50;1.90;;;21.10;40.60;;;;;;5077921;28;20219;-58
2021/04/04 11:57:28;;;;;;;1.95;1.70;;;21.30;39.70;;;;;;5078032;28;20251;-59
2021/04/04 12:00:11;;;;;;;3.22;1.50;;;23.00;42.70;;;;;;5077667;28;20254;-46
2021/04/04 12:02:45;;;;;;;2.03;1.60;;;26.00;37.30;;;;;;5057946;28;20176;-56
2021/04/04 12:05:13;;;;;;;2.60;1.48;;;27.60;33.00;;;;;;5063595;28;20194;-51
2021/04/04 12:08:05;;;;;;;1.90;1.70;;;27.70;32.50;;;;;;5063766;28;20178;-52
2021/04/04 12:10:37;;;;;;;1.90;1.55;;;28.00;34.90;;;;;;5075505;28;20182;-52
2021/04/04 12:13:18;;;;;;;1.98;1.48;;;27.10;31.90;;;;;;5077028;28;20178;-57
2021/04/04 12:15:43;;;;;;;2.03;1.83;;;24.80;35.40;;;;;;5077149;28;20194;-55
2021/04/04 12:18:09;;;;;;;1.98;1.55;;;24.30;34.10;;;;;;5070179;28;20237;-48
2021/04/04 12:20:35;;;;;;;1.40;1.30;;;24.10;32.90;;;;;;5062747;28;20180;-57
2021/04/04 12:23:02;;;;;;;1.85;1.50;;;23.00;34.80;;;;;;5075604;28;20182;-54
2021/04/04 12:25:29;;;;;;;1.90;1.80;;;23.20;33.80;;;;;;5077213;28;20654;-50
2021/04/04 12:27:59;;;;;;;2.55;1.70;;;22.10;36.60;;;;;;5077025;28;20191;-47
2021/04/04 12:30:39;;;;;;;2.97;1.77;;;21.10;37.00;;;;;;5074429;28;20183;-48
2021/04/04 12:33:17;;;;;;;3.75;1.70;;;19.70;38.00;;;;;;5056993;28;20171;-57
2021/04/04 12:35:45;;;;;;;2.33;1.63;;;18.00;38.40;;;;;;5056565;28;20186;-57
2021/04/04 12:38:30;;;;;;;3.38;1.60;;;17.70;43.50;;;;;;5059715;28;20178;-48
2021/04/04 12:41:00;;;;;;;2.17;1.63;;;18.00;40.90;;;;;;5076536;28;20198;-47
2021/04/04 12:43:26;;;;;;;1.93;1.60;;;17.00;39.10;;;;;;5072407;28;20689;-49
2021/04/04 12:45:52;;;;;;;2.47;1.50;;;16.50;41.30;;;;;;5072370;28;20211;-58
2021/04/04 12:48:20;;;;;;;1.93;1.60;;;16.80;41.50;;;;;;5070543;28;20190;-49
2021/04/04 12:50:50;;;;;;;3.10;1.80;;;16.80;40.40;;;;;;5060453;28;20655;-48
2021/04/04 12:53:27;;;;;;;2.77;1.90;;;17.20;38.00;;;;;;5060610;28;20270;-58
2021/04/04 12:55:53;;;;;;;2.63;1.70;;;17.30;39.60;;;;;;5064300;28;20207;-50
2021/04/04 12:58:19;;;;;;;2.03;1.73;;;17.20;41.70;;;;;;5062724;28;20626;-49
2021/04/04 13:00:46;;;;;;;1.90;1.63;;;17.10;40.20;;;;;;5060257;28;20187;-50
2021/04/04 13:03:13;;;;;;;2.67;1.67;;;16.90;40.20;;;;;;5059367;28;20183;-50
2021/04/04 13:05:47;;;;;;;1.80;1.70;;;16.80;42.70;;;;;;5054777;28;20276;-56
2021/04/04 13:08:19;;;;;;;2.50;1.77;;;16.80;44.20;;;;;;5069680;28;20193;-50
2021/04/04 13:10:54;;;;;;;2.43;1.87;;;17.20;41.00;;;;;;5056994;28;20203;-48
2021/04/04 13:13:22;;;;;;;2.27;1.80;;;16.80;41.90;;;;;;5055298;28;20182;-55
2021/04/04 13:15:48;;;;;;;3.90;2.00;;;16.40;40.30;;;;;;5060640;28;20571;-48
2021/04/04 13:18:27;;;;;;;2.20;2.00;;;15.80;40.50;;;;;;5065926;28;20673;-51